Time;durP1;ratioP1;P1;durP2;ratioP2;P2;SDS_P1;SDS_P2;PMS_P1;PMS_P2;Temp;Humidity;BMP_temperature;BMP_pressure;BME280_temperature;BME280_humidity;BME280_pressure;Samples;Min_cycle;Max_cycle;Signal;HPM_P1;HPM_P2
2022/08/05 00:01:32;;;;;;;8.00;4.20;;;;;;;20.78;53.51;97922.18;105943;1280;24279;-87
2022/08/05 00:04:03;;;;;;;5.80;4.40;;;;;;;20.75;53.68;97922.38;105841;1277;25402;-86
2022/08/05 00:06:35;;;;;;;6.80;4.60;;;;;;;20.74;53.57;97919.92;105900;1278;25246;-86
2022/08/05 00:09:04;;;;;;;5.70;4.10;;;;;;;20.73;53.74;97918.42;105871;1278;22798;-87
2022/08/05 00:11:41;;;;;;;8.30;4.30;;;;;;;20.71;53.70;97917.53;105866;1279;25316;-86
2022/08/05 00:14:23;;;;;;;5.10;3.70;;;;;;;20.70;53.66;97917.36;105795;1280;25316;-86
2022/08/05 00:16:58;;;;;;;10.60;4.50;;;;;;;20.69;53.77;97914.27;105951;1278;22791;-86
2022/08/05 00:19:28;;;;;;;8.10;4.50;;;;;;;20.68;53.83;97914.58;105869;1278;25296;-87
2022/08/05 00:22:07;;;;;;;7.90;4.50;;;;;;;20.68;54.01;97912.77;105881;1280;25423;-86
2022/08/05 00:24:39;;;;;;;5.20;4.00;;;;;;;20.66;53.82;97911.80;105894;1278;24287;-86
2022/08/05 00:27:09;;;;;;;6.60;4.20;;;;;;;20.63;53.96;97910.58;105947;1280;24431;-86
2022/08/05 00:29:57;;;;;;;7.90;4.20;;;;;;;20.60;54.00;97911.08;105880;1280;23398;-86
2022/08/05 00:32:27;;;;;;;5.90;4.50;;;;;;;20.60;54.07;97907.48;105846;1280;25560;-86
2022/08/05 00:34:55;;;;;;;9.60;4.80;;;;;;;20.59;54.14;97908.10;105735;1278;25405;-86
2022/08/05 00:37:34;;;;;;;7.30;4.80;;;;;;;20.59;54.09;97903.00;105810;1280;26507;-87
2022/08/05 00:40:22;;;;;;;8.30;4.50;;;;;;;20.58;54.29;97902.98;105937;1278;22561;-86
2022/08/05 00:42:58;;;;;;;8.50;4.60;;;;;;;20.57;54.21;97904.54;105874;1280;25353;-87
2022/08/05 00:45:27;;;;;;;8.40;4.50;;;;;;;20.57;54.50;97899.30;105977;1278;22702;-86
2022/08/05 00:48:11;;;;;;;;;;;;;;;20.56;54.48;97903.42;105890;1278;22521;-85
2022/08/05 00:50:42;;;;;;;5.90;4.40;;;;;;;20.54;54.51;97902.06;105826;1280;25233;-85
2022/08/05 00:53:15;;;;;;;8.20;4.20;;;;;;;20.53;54.54;97901.33;105805;1280;25384;-86
2022/08/05 00:56:04;;;;;;;8.90;4.70;;;;;;;20.50;54.61;97897.52;105864;1278;22861;-86
2022/08/05 00:58:36;;;;;;;6.90;4.70;;;;;;;20.47;54.68;97900.26;105935;1280;22625;-88
2022/08/05 01:01:05;;;;;;;6.00;4.20;;;;;;;20.44;54.80;97893.55;105762;1280;25336;-86
2022/08/05 01:03:38;;;;;;;6.60;4.60;;;;;;;20.40;54.93;97894.52;105759;1280;25340;-86
2022/08/05 01:06:07;;;;;;;8.90;4.70;;;;;;;20.37;55.20;97895.40;105851;1280;25359;-86
2022/08/05 01:08:42;;;;;;;5.90;4.30;;;;;;;20.34;55.26;97893.56;105851;1280;25339;-87
2022/08/05 01:11:21;;;;;;;10.80;4.70;;;;;;;20.31;55.33;97889.41;105816;1278;24386;-84
2022/08/05 01:14:13;;;;;;;5.90;4.20;;;;;;;20.26;55.41;97884.56;105742;1278;25465;-88
2022/08/05 01:16:52;;;;;;;7.90;4.60;;;;;;;20.21;55.65;97881.64;105849;1280;22580;-86
2022/08/05 01:19:20;;;;;;;7.30;4.40;;;;;;;20.18;55.74;97876.28;105932;1280;22881;-87
2022/08/05 01:22:31;;;;;;;8.00;4.20;;;;;;;20.17;55.85;97873.45;105918;1278;22738;-87
2022/08/05 01:25:06;;;;;;;6.90;4.40;;;;;;;20.16;55.83;97866.48;105897;1278;26677;-87
2022/08/05 01:27:37;;;;;;;5.80;4.10;;;;;;;20.17;55.95;97864.45;105910;1277;24283;-87
2022/08/05 01:30:25;;;;;;;6.50;4.30;;;;;;;20.18;55.94;97864.95;105825;1280;25502;-86
2022/08/05 01:33:08;;;;;;;8.90;4.20;;;;;;;20.20;55.92;97869.50;105863;1278;25389;-87
2022/08/05 01:35:40;;;;;;;9.00;4.50;;;;;;;20.20;55.78;97868.56;105933;1278;25468;-87
2022/08/05 01:38:22;;;;;;;6.70;4.30;;;;;;;20.18;55.90;97862.60;105865;1280;26642;-85
2022/08/05 01:41:00;;;;;;;9.30;4.60;;;;;;;20.12;55.83;97862.58;105761;1278;22617;-87
2022/08/05 01:43:31;;;;;;;9.20;4.50;;;;;;;20.07;55.83;97864.90;105877;1277;24218;-87
2022/08/05 01:46:00;;;;;;;6.00;4.20;;;;;;;20.01;55.92;97862.27;105878;1278;22553;-87
2022/08/05 01:48:45;;;;;;;8.40;5.00;;;;;;;19.93;56.03;97864.48;105929;1280;22532;-86
2022/08/05 01:51:17;;;;;;;7.90;4.60;;;;;;;19.85;56.10;97859.39;106209;1280;25245;-86
2022/08/05 01:53:49;;;;;;;10.10;5.00;;;;;;;19.80;56.29;97859.30;108590;1277;23025;-87
2022/08/05 01:56:29;;;;;;;7.30;4.70;;;;;;;19.76;56.49;97853.75;105790;1280;24119;-87
2022/08/05 01:59:20;;;;;;;7.90;5.40;;;;;;;19.72;56.51;97851.40;105623;1278;22731;-86
2022/08/05 02:01:52;;;;;;;8.60;5.10;;;;;;;19.66;56.60;97848.48;105696;1278;22624;-86
2022/08/05 02:04:24;;;;;;;8.50;5.20;;;;;;;19.57;56.76;97848.48;105671;1277;24200;-87
2022/08/05 02:06:52;;;;;;;6.40;4.70;;;;;;;19.50;56.88;97847.27;105663;1279;23024;-87
2022/08/05 02:09:20;;;;;;;11.60;5.00;;;;;;;19.44;56.92;97847.44;105723;1278;24331;-86
2022/08/05 02:12:09;;;;;;;6.70;4.80;;;;;;;19.38;57.10;97846.70;105820;1278;24360;-86
2022/08/05 02:14:46;;;;;;;10.00;4.90;;;;;;;19.33;57.11;97843.14;105847;1280;25547;-86
2022/08/05 02:17:22;;;;;;;9.20;5.00;;;;;;;19.29;57.25;97839.95;105883;1280;24419;-87
2022/08/05 02:20:20;;;;;;;9.40;4.90;;;;;;;19.22;57.35;97835.83;105930;1279;22698;-86
2022/08/05 02:22:58;;;;;;;9.70;5.00;;;;;;;19.15;57.58;97833.40;105858;1280;25423;-86
2022/08/05 02:25:35;;;;;;;7.40;4.60;;;;;;;19.08;57.55;97833.09;105943;1278;25476;-86
2022/08/05 02:28:25;;;;;;;9.10;5.10;;;;;;;19.03;57.73;97831.81;105857;1278;24218;-88
2022/08/05 02:31:25;;;;;;;10.00;5.80;;;;;;;18.99;58.01;97831.79;105918;1278;25413;-87
2022/08/05 02:34:01;;;;;;;6.00;4.60;;;;;;;18.95;58.30;97830.53;105931;1278;26719;-86
2022/08/05 02:36:31;;;;;;;9.50;4.80;;;;;;;18.91;58.59;97829.59;105912;1280;23227;-86
2022/08/05 02:39:01;;;;;;;11.90;5.50;;;;;;;18.89;58.66;97833.11;105904;1280;22862;-87
2022/08/05 02:41:32;;;;;;;8.70;6.40;;;;;;;18.85;58.95;97829.67;105913;1280;25346;-87
2022/08/05 02:44:23;;;;;;;8.90;5.60;;;;;;;18.78;59.04;97828.34;105901;1280;25248;-86
2022/08/05 02:46:53;;;;;;;12.40;5.60;;;;;;;18.71;59.20;97830.25;105904;1280;22572;-86
2022/08/05 02:49:31;;;;;;;7.20;5.00;;;;;;;18.67;59.48;97826.87;105887;1278;25521;-86
2022/08/05 02:52:07;;;;;;;13.00;5.80;;;;;;;18.68;60.00;97825.73;105876;1280;22585;-86
2022/08/05 02:54:38;;;;;;;7.90;5.40;;;;;;;18.69;60.03;97829.36;105905;1280;24371;-85
2022/08/05 02:57:14;;;;;;;10.00;5.40;;;;;;;18.70;60.07;97828.11;105797;1278;24260;-87
2022/08/05 03:00:03;;;;;;;6.80;4.80;;;;;;;18.69;60.41;97830.83;105861;1278;22493;-87
2022/08/05 03:02:39;;;;;;;7.30;5.20;;;;;;;18.68;60.22;97830.86;105885;1280;25469;-87
2022/08/05 03:05:11;;;;;;;7.40;5.60;;;;;;;18.66;60.27;97829.27;105922;1278;22698;-88
2022/08/05 03:07:41;;;;;;;10.60;6.40;;;;;;;18.64;60.33;97831.11;105930;1280;25364;-86
2022/08/05 03:10:29;;;;;;;9.00;5.80;;;;;;;18.57;60.25;97827.98;105811;1278;24258;-87
2022/08/05 03:12:57;;;;;;;7.00;5.40;;;;;;;18.52;60.30;97829.89;105876;1280;22631;-87
2022/08/05 03:15:27;;;;;;;7.80;4.70;;;;;;;18.48;60.41;97824.64;105815;1278;25194;-86
2022/08/05 03:17:55;;;;;;;11.80;5.80;;;;;;;18.45;60.55;97825.48;105861;1278;22584;-85
2022/08/05 03:20:27;;;;;;;7.60;5.50;;;;;;;18.42;60.73;97823.48;105732;1280;25355;-86
2022/08/05 03:22:55;;;;;;;6.80;5.40;;;;;;;18.40;60.63;97820.45;105840;1280;25345;-86
2022/08/05 03:25:26;;;;;;;9.50;5.00;;;;;;;18.38;60.63;97821.42;105893;1278;22623;-85
2022/08/05 03:28:41;;;;;;;11.20;5.20;;;;;;;18.37;61.55;97820.87;105842;1278;24289;-87
2022/08/05 03:31:50;;;;;;;7.50;5.00;;;;;;;18.39;61.26;97822.95;101961;1280;24294;-86
2022/08/05 03:34:26;;;;;;;10.30;5.30;;;;;;;18.42;61.59;97815.75;105860;1280;24364;-86
2022/08/05 03:36:55;;;;;;;7.70;5.60;;;;;;;18.42;61.63;97817.95;105865;1280;24352;-86
2022/08/05 03:39:23;;;;;;;7.30;5.50;;;;;;;18.41;61.77;97817.04;105869;1280;22557;-86
2022/08/05 03:41:55;;;;;;;9.80;6.60;;;;;;;18.39;61.52;97819.44;105880;1280;24209;-87
2022/08/05 03:44:24;;;;;;;11.90;6.20;;;;;;;18.38;61.56;97819.08;105907;1280;24419;-87
2022/08/05 03:46:55;;;;;;;8.00;5.80;;;;;;;18.36;61.49;97821.63;105787;1280;22550;-88
2022/08/05 03:49:24;;;;;;;6.90;5.50;;;;;;;18.33;61.56;97818.52;105865;1278;22556;-87
2022/08/05 03:52:18;;;;;;;8.30;5.50;;;;;;;18.28;61.43;97825.38;105871;1280;24470;-86
2022/08/05 03:55:12;;;;;;;6.80;5.50;;;;;;;18.23;61.64;97826.90;105899;1280;22544;-86
2022/08/05 03:58:02;;;;;;;14.80;13.30;;;;;;;18.19;61.55;97831.86;105908;1280;22570;-87
2022/08/05 04:00:32;;;;;;;8.60;6.40;;;;;;;18.15;61.70;97830.12;105975;1278;22737;-86
2022/08/05 04:03:02;;;;;;;8.00;5.50;;;;;;;18.14;61.79;97828.60;105861;1279;22785;-88
2022/08/05 04:05:35;;;;;;;8.80;5.70;;;;;;;18.14;61.99;97832.59;105955;1278;25322;-87
2022/08/05 04:08:09;;;;;;;9.80;6.00;;;;;;;18.15;62.03;97831.98;105898;1278;28112;-86
2022/08/05 04:10:57;;;;;;;8.80;5.80;;;;;;;18.14;62.39;97831.88;105921;1278;23736;-87
2022/08/05 04:13:27;;;;;;;7.30;5.90;;;;;;;18.14;62.50;97829.39;105958;1278;25523;-87
2022/08/05 04:16:15;;;;;;;10.00;6.20;;;;;;;18.14;62.53;97830.33;105881;1278;23450;-87
2022/08/05 04:18:52;;;;;;;9.60;5.60;;;;;;;18.13;62.70;97829.23;105897;1278;22552;-86
2022/08/05 04:21:24;;;;;;;8.00;5.20;;;;;;;18.15;62.75;97820.70;105942;1280;25522;-86
2022/08/05 04:24:12;;;;;;;10.60;5.70;;;;;;;18.18;62.85;97818.67;105929;1277;25251;-87
2022/08/05 04:26:46;;;;;;;;;;;;;;;18.22;62.85;97816.83;105900;1278;22797;-87
2022/08/05 04:29:14;;;;;;;8.40;5.60;;;;;;;18.23;62.73;97818.16;105903;1277;24371;-87
2022/08/05 04:31:42;;;;;;;7.90;5.50;;;;;;;18.31;62.84;97827.71;105884;1278;24362;-87
2022/08/05 04:34:10;;;;;;;8.80;5.60;;;;;;;18.37;62.86;97828.64;105785;1278;25498;-85
2022/08/05 04:36:58;;;;;;;8.90;5.60;;;;;;;18.46;62.91;97825.28;105771;1277;25287;-86
2022/08/05 04:39:27;;;;;;;7.70;5.40;;;;;;;18.56;63.06;97825.61;105767;1277;25539;-87
2022/08/05 04:41:55;;;;;;;11.70;6.10;;;;;;;18.66;63.26;97825.38;105876;1278;24292;-86
2022/08/05 04:44:23;;;;;;;10.40;5.80;;;;;;;18.74;63.19;97821.29;105871;1278;23241;-87
2022/08/05 04:46:58;;;;;;;7.40;6.60;;;;;;;18.81;63.36;97820.16;105817;1279;22671;-86
2022/08/05 04:49:26;;;;;;;10.20;5.80;;;;;;;18.89;63.34;97820.94;105894;1278;24315;-88
2022/08/05 04:52:14;;;;;;;8.90;5.80;;;;;;;18.97;63.36;97823.71;105916;1277;23242;-89
2022/08/05 04:54:42;;;;;;;8.30;5.50;;;;;;;19.05;63.52;97823.02;106840;1280;25284;-85
2022/08/05 04:57:10;;;;;;;8.00;5.20;;;;;;;19.12;63.36;97821.79;107191;1278;22648;-87
2022/08/05 04:59:38;;;;;;;9.20;5.90;;;;;;;19.21;63.42;97821.89;106070;1277;22556;-86
2022/08/05 05:02:07;;;;;;;8.00;5.70;;;;;;;19.29;63.37;97822.15;105845;1278;24111;-86
2022/08/05 05:04:56;;;;;;;8.30;5.70;;;;;;;19.39;63.18;97821.11;105772;1277;24091;-87
2022/08/05 05:07:30;;;;;;;8.30;5.40;;;;;;;19.48;63.21;97822.79;105702;1278;24168;-88
2022/08/05 05:10:04;;;;;;;8.00;5.70;;;;;;;19.58;63.00;97821.33;105813;1278;24293;-87
2022/08/05 05:12:33;;;;;;;7.00;5.30;;;;;;;19.67;63.06;97822.18;105811;1278;23941;-86
2022/08/05 05:15:04;;;;;;;10.50;6.10;;;;;;;19.76;62.98;97819.86;105836;1278;24026;-87
2022/08/05 05:17:38;;;;;;;;;;;;;;;19.86;62.86;97820.05;108277;1277;22580;-86
2022/08/05 05:20:23;;;;;;;10.00;5.70;;;;;;;19.95;62.76;97822.64;106792;1277;25297;-87
2022/08/05 05:23:23;;;;;;;9.00;5.50;;;;;;;20.04;62.79;97824.75;105772;1278;25411;-87
2022/08/05 05:25:51;;;;;;;8.60;5.50;;;;;;;20.17;62.70;97826.40;105747;1277;26498;-87
2022/08/05 05:28:19;;;;;;;8.10;5.90;;;;;;;20.28;62.51;97831.05;105920;1277;25319;-88
2022/08/05 05:30:47;;;;;;;8.90;5.70;;;;;;;20.37;62.46;97831.28;105871;1278;22555;-87
2022/08/05 05:33:16;;;;;;;12.60;5.40;;;;;;;20.45;62.28;97830.01;105878;1278;24244;-86
2022/08/05 05:35:50;;;;;;;17.70;6.70;;;;;;;20.53;62.17;97832.73;105866;1278;22691;-86
2022/08/05 05:38:18;;;;;;;7.30;5.10;;;;;;;20.61;62.13;97829.20;105820;1280;25402;-87
2022/08/05 05:40:56;;;;;;;8.10;5.20;;;;;;;20.70;62.08;97830.50;105931;1278;22540;-87
2022/08/05 05:43:24;;;;;;;9.40;5.60;;;;;;;20.78;61.99;97830.18;105873;1277;23891;-88
2022/08/05 05:46:12;;;;;;;9.90;6.80;;;;;;;20.89;61.85;97829.88;105716;1277;22621;-86
2022/08/05 05:48:46;;;;;;;9.90;5.40;;;;;;;20.97;61.65;97836.10;105710;1277;25735;-88
2022/08/05 05:51:21;;;;;;;9.10;5.30;;;;;;;21.03;61.52;97833.76;105813;1278;22621;-86
2022/08/05 05:53:50;;;;;;;8.40;5.30;;;;;;;21.10;61.41;97830.80;105947;1277;26602;-87
2022/08/05 05:56:28;;;;;;;9.50;5.50;;;;;;;21.18;61.25;97827.55;105968;1278;22616;-87
2022/08/05 05:59:05;;;;;;;10.00;5.60;;;;;;;21.27;61.33;97823.84;105790;1278;22546;-86
2022/08/05 06:01:36;;;;;;;13.40;5.30;;;;;;;21.40;61.20;97825.21;105783;1277;22693;-86
2022/08/05 06:04:09;;;;;;;7.90;5.00;;;;;;;21.52;61.08;97823.40;105739;1277;22487;-86
2022/08/05 06:06:44;;;;;;;9.80;5.80;;;;;;;21.63;60.94;97822.44;105710;1277;25299;-85
2022/08/05 06:09:15;;;;;;;9.50;5.30;;;;;;;21.71;60.73;97827.79;105770;1277;22554;-87
2022/08/05 06:11:53;;;;;;;11.70;5.30;;;;;;;21.80;60.36;97822.09;105867;1277;25410;-87
2022/08/05 06:14:30;;;;;;;7.70;5.60;;;;;;;21.90;60.42;97823.30;105876;1278;25312;-87
2022/08/05 06:16:59;;;;;;;13.50;5.60;;;;;;;22.00;60.27;97826.39;105973;1278;22562;-88
2022/08/05 06:19:47;;;;;;;14.90;6.60;;;;;;;22.12;60.12;97828.31;105848;1277;22663;-87
2022/08/05 06:22:29;;;;;;;16.60;7.70;;;;;;;22.22;59.97;97827.10;105896;1278;22732;-86
2022/08/05 06:25:03;;;;;;;13.80;6.70;;;;;;;22.33;59.99;97824.63;106191;1277;25241;-84
2022/08/05 06:27:51;;;;;;;11.60;6.00;;;;;;;22.45;59.85;97823.63;108476;1277;22712;-87
2022/08/05 06:30:39;;;;;;;9.70;5.20;;;;;;;22.59;59.73;97826.42;105878;1278;22561;-87
2022/08/05 06:33:08;;;;;;;6.70;4.80;;;;;;;22.70;59.23;97827.91;105764;1277;25384;-86
2022/08/05 06:35:37;;;;;;;11.30;5.70;;;;;;;22.80;59.19;97826.41;105768;1277;24096;-86
2022/08/05 06:38:25;;;;;;;12.70;5.80;;;;;;;22.89;58.74;97830.88;105875;1277;24218;-86
2022/08/05 06:41:04;;;;;;;7.30;5.20;;;;;;;22.99;58.45;97832.62;105930;1278;24250;-87
2022/08/05 06:43:35;;;;;;;7.80;5.50;;;;;;;23.03;58.00;97832.49;105886;1278;25298;-87
2022/08/05 06:46:24;;;;;;;7.90;4.90;;;;;;;23.08;57.83;97837.31;106345;1278;24400;-85
2022/08/05 06:48:59;;;;;;;10.80;5.40;;;;;;;23.14;57.55;97835.85;105763;1278;22621;-87
2022/08/05 06:51:28;;;;;;;7.70;5.00;;;;;;;23.23;57.69;97835.76;105717;1277;24278;-86
2022/08/05 06:53:59;;;;;;;12.00;6.30;;;;;;;23.32;57.69;97827.56;105729;1277;24243;-86
2022/08/05 06:56:31;;;;;;;11.20;6.10;;;;;;;23.45;57.68;97828.02;105861;1278;25528;-87
2022/08/05 06:59:03;;;;;;;10.00;5.60;;;;;;;23.56;57.66;97824.61;105929;1277;23316;-87
2022/08/05 07:01:36;;;;;;;8.90;5.50;;;;;;;23.68;57.72;97829.77;105880;1278;23140;-88
2022/08/05 07:04:09;;;;;;;8.60;5.50;;;;;;;23.78;57.74;97826.45;105698;1278;22552;-86
2022/08/05 07:06:40;;;;;;;11.50;6.00;;;;;;;23.86;57.35;97826.00;105690;1278;22663;-86
2022/08/05 07:09:09;;;;;;;7.10;5.10;;;;;;;23.93;57.18;97823.52;105706;1278;22724;-87
2022/08/05 07:11:37;;;;;;;10.50;5.10;;;;;;;23.99;56.98;97826.90;105858;1278;23689;-86
2022/08/05 07:16:59;;;;;;;9.70;5.00;;;;;;;24.15;56.59;97822.69;105934;1278;22554;-88
2022/08/05 07:19:50;;;;;;;12.10;5.40;;;;;;;24.25;56.44;97823.27;105875;1281;22547;-87
2022/08/05 07:22:38;;;;;;;8.50;4.50;;;;;;;24.35;56.03;97824.52;105925;1277;25555;-87
2022/08/05 07:25:09;;;;;;;10.20;5.50;;;;;;;24.44;55.81;97826.45;105903;1277;22556;-87
2022/08/05 07:27:58;;;;;;;10.10;5.50;;;;;;;24.56;55.69;97822.14;105903;1277;22569;-88
2022/08/05 07:30:36;;;;;;;7.70;5.20;;;;;;;24.68;55.64;97821.66;106052;1278;22722;-89
2022/08/05 07:33:08;;;;;;;9.70;5.20;;;;;;;24.79;55.54;97817.87;105961;1278;22742;-87
2022/08/05 07:35:45;;;;;;;9.80;5.30;;;;;;;24.93;55.37;97820.69;108040;1277;22645;-86
2022/08/05 07:38:34;;;;;;;14.50;5.20;;;;;;;25.11;55.20;97823.35;106416;1277;25238;-89
2022/08/05 07:41:16;;;;;;;7.80;4.90;;;;;;;25.30;55.19;97823.88;105829;1277;25247;-87
2022/08/05 07:44:06;;;;;;;9.80;4.90;;;;;;;25.47;54.70;97826.89;105694;1278;22551;-88
2022/08/05 07:46:47;;;;;;;5.90;5.00;;;;;;;25.55;54.33;97825.05;105709;1278;22556;-87
2022/08/05 07:49:18;;;;;;;11.40;5.40;;;;;;;25.65;54.48;97825.64;105754;1277;23209;-87
2022/08/05 07:51:46;;;;;;;13.00;5.50;;;;;;;25.80;54.02;97822.83;105772;1278;24274;-88
2022/08/05 07:54:26;;;;;;;12.10;5.70;;;;;;;25.92;53.79;97823.41;106704;1277;25264;-88
2022/08/05 07:57:02;;;;;;;11.50;5.60;;;;;;;26.04;53.60;97819.56;105793;1277;22543;-86
2022/08/05 07:59:50;;;;;;;14.10;5.30;;;;;;;26.12;53.49;97819.83;105805;1277;23491;-88
2022/08/05 08:02:23;;;;;;;11.10;5.40;;;;;;;26.20;52.91;97821.83;105842;1278;22707;-88
2022/08/05 08:05:00;;;;;;;8.50;5.30;;;;;;;26.28;52.97;97817.20;105955;1278;24201;-88
2022/08/05 08:07:30;;;;;;;8.00;5.00;;;;;;;26.37;52.30;97817.92;105762;1277;24277;-88
2022/08/05 08:10:18;;;;;;;10.20;5.70;;;;;;;26.48;52.54;97818.73;105696;1277;22554;-86
2022/08/05 08:12:48;;;;;;;13.40;5.50;;;;;;;26.61;52.31;97816.82;105866;1278;22744;-89
2022/08/05 08:15:16;;;;;;;19.00;5.50;;;;;;;26.66;51.85;97821.13;105787;1277;25312;-87
2022/08/05 08:18:05;;;;;;;10.20;5.30;;;;;;;26.72;52.35;97826.36;105808;1278;22696;-88
2022/08/05 08:20:41;;;;;;;12.40;5.50;;;;;;;26.85;52.01;97831.77;105872;1277;25493;-86
2022/08/05 08:23:30;;;;;;;14.50;6.30;;;;;;;26.99;52.08;97823.67;105911;1277;23947;-87
2022/08/05 08:26:18;;;;;;;11.90;5.10;;;;;;;27.13;52.14;97826.08;105839;1277;23100;-87
2022/08/05 08:28:59;;;;;;;9.10;5.00;;;;;;;27.24;51.89;97826.07;105755;1277;25371;-87
2022/08/05 08:31:47;;;;;;;8.70;5.40;;;;;;;27.37;51.82;97826.85;105754;1277;25554;-86
2022/08/05 08:34:17;;;;;;;14.80;5.50;;;;;;;27.45;51.56;97828.59;105771;1277;22627;-87
2022/08/05 08:36:57;;;;;;;10.10;5.10;;;;;;;27.55;51.41;97827.83;105738;1277;23101;-88
2022/08/05 08:39:33;;;;;;;17.20;6.10;;;;;;;27.66;51.31;97828.75;106040;1277;25350;-87
2022/08/05 08:42:08;;;;;;;12.40;6.00;;;;;;;27.79;50.82;97826.06;105965;1278;25426;-87
2022/08/05 08:44:57;;;;;;;11.10;5.20;;;;;;;27.94;50.81;97827.85;105762;1277;25402;-87
2022/08/05 08:47:48;;;;;;;10.10;5.40;;;;;;;28.03;50.26;97829.63;105793;1277;22705;-87
2022/08/05 08:50:40;;;;;;;11.00;6.30;;;;;;;28.19;50.59;97836.91;105824;1277;22558;-91
2022/08/05 08:53:35;;;;;;;9.40;5.70;;;;;;;28.35;50.33;97832.33;105788;1277;24374;-87
2022/08/05 08:56:44;;;;;;;7.10;4.80;;;;;;;28.48;50.17;97833.11;105859;1277;25453;-90
2022/08/05 09:00:39;;;;;;;9.60;4.70;;;;;;;28.63;48.69;97836.13;105765;1277;24376;-88
2022/08/05 09:04:28;;;;;;;5.80;4.00;;;;;;;28.71;48.35;97835.76;105849;1277;22868;-89
2022/08/05 09:08:37;;;;;;;7.40;4.30;;;;;;;28.66;43.72;97835.42;105771;1277;25357;-87
2022/08/05 09:12:26;;;;;;;6.50;4.50;;;;;;;28.65;45.01;97832.04;105924;1277;22615;-88
2022/08/05 09:16:20;;;;;;;8.00;4.80;;;;;;;28.94;45.23;97829.10;105113;1287;22688;-88
2022/08/05 09:20:16;;;;;;;6.70;4.20;;;;;;;29.20;44.73;97827.46;105174;1287;22700;-89
2022/08/05 09:24:07;;;;;;;10.10;4.70;;;;;;;29.33;44.93;97821.44;105166;1285;25360;-89
2022/08/05 09:27:59;;;;;;;7.80;4.10;;;;;;;29.50;44.32;97829.19;104483;1291;24768;-86
2022/08/05 09:31:48;;;;;;;5.50;4.00;;;;;;;29.68;43.87;97822.66;103768;1297;22913;-89
2022/08/05 09:35:58;;;;;;;7.90;4.30;;;;;;;29.72;41.31;97816.17;103560;1303;22698;-87
2022/08/05 09:39:10;;;;;;;8.50;4.40;;;;;;;29.73;42.00;97810.19;103599;1303;22742;-89
2022/08/05 09:41:57;;;;;;;6.50;4.50;;;;;;;29.88;41.56;97806.70;103618;1303;25386;-90
2022/08/05 09:44:34;;;;;;;6.60;4.30;;;;;;;30.04;41.86;97806.42;103765;1303;24384;-89
2022/08/05 09:47:12;;;;;;;8.90;3.70;;;;;;;30.18;41.99;97804.07;103707;1303;24616;-89
2022/08/05 09:49:45;;;;;;;7.40;4.00;;;;;;;30.41;41.39;97801.48;103449;1303;22572;-88
2022/08/05 09:52:34;;;;;;;7.80;4.30;;;;;;;30.59;40.83;97802.94;103544;1300;22801;-90
2022/08/05 09:55:07;;;;;;;6.00;3.30;;;;;;;30.68;40.68;97800.96;103752;1300;22661;-87
2022/08/05 09:57:55;;;;;;;5.40;3.40;;;;;;;30.81;40.33;97800.58;103803;1298;22947;-87
2022/08/05 10:00:27;;;;;;;4.70;3.50;;;;;;;30.82;39.20;97797.15;103760;1300;25552;-87
2022/08/05 10:02:57;;;;;;;4.40;3.40;;;;;;;30.86;38.64;97797.67;103729;1300;23368;-88
2022/08/05 10:05:28;;;;;;;5.80;3.60;;;;;;;30.89;38.77;97800.61;104267;1294;24442;-88
2022/08/05 10:08:02;;;;;;;9.50;4.00;;;;;;;30.96;37.48;97798.59;104784;1287;22967;-86
2022/08/05 10:10:51;;;;;;;5.30;4.00;;;;;;;30.83;37.03;97791.48;105229;1278;25315;-87
2022/08/05 10:13:30;;;;;;;9.80;4.20;;;;;;;30.93;36.45;97795.91;105821;1277;22540;-89
2022/08/05 10:16:27;;;;;;;6.80;3.70;;;;;;;31.00;37.14;97793.24;105783;1277;22577;-88
2022/08/05 10:18:57;;;;;;;8.70;3.60;;;;;;;31.13;36.93;97791.23;105817;1277;25181;-89
2022/08/05 10:21:26;;;;;;;6.10;3.70;;;;;;;31.30;37.38;97794.12;105876;1277;24364;-86
2022/08/05 10:24:02;;;;;;;10.90;3.80;;;;;;;31.49;36.93;97793.27;105909;1278;25261;-88
2022/08/05 10:26:42;;;;;;;5.20;3.10;;;;;;;31.58;36.42;97789.91;105885;1277;22599;-88
2022/08/05 10:29:20;;;;;;;5.80;3.30;;;;;;;31.64;36.77;97787.58;105914;1277;24418;-88
2022/08/05 10:32:09;;;;;;;6.60;3.70;;;;;;;31.79;36.12;97781.91;105868;1277;25315;-89
2022/08/05 10:34:58;;;;;;;5.20;3.50;;;;;;;31.90;35.91;97778.90;105879;1277;25414;-88
2022/08/05 10:37:30;;;;;;;7.00;3.20;;;;;;;32.06;35.93;97778.80;105860;1277;24244;-88
2022/08/05 10:40:26;;;;;;;6.20;3.50;;;;;;;32.30;35.78;97778.06;105895;1278;24209;-88
2022/08/05 10:43:03;;;;;;;6.10;3.40;;;;;;;32.50;35.62;97779.96;105929;1277;22562;-87
2022/08/05 10:45:34;;;;;;;5.80;3.20;;;;;;;32.66;35.17;97777.23;105943;1277;23208;-88
2022/08/05 10:48:30;;;;;;;3.80;3.20;;;;;;;32.78;34.70;97782.77;106538;1278;25930;-88
2022/08/05 10:51:17;;;;;;;5.10;3.00;;;;;;;32.94;34.28;97778.48;105982;1277;26628;-87
2022/08/05 10:54:01;;;;;;;7.10;3.30;;;;;;;33.03;33.88;97770.70;105935;1277;22929;-89
2022/08/05 10:56:57;;;;;;;10.90;3.50;;;;;;;33.03;33.03;97770.69;105770;1277;22556;-89
2022/08/05 10:59:28;;;;;;;4.70;3.00;;;;;;;32.92;32.98;97769.39;105943;1277;25338;-88
2022/08/05 11:02:19;;;;;;;8.80;3.60;;;;;;;33.00;33.20;97767.93;105923;1279;25354;-88
2022/08/05 11:05:09;;;;;;;6.30;3.40;;;;;;;33.09;31.34;97766.59;106010;1277;22559;-88
2022/08/05 11:07:58;;;;;;;5.40;3.10;;;;;;;33.03;31.95;97764.50;106137;1277;22603;-87
2022/08/05 11:10:38;;;;;;;5.90;2.80;;;;;;;33.10;32.15;97746.98;106167;1277;24219;-87
2022/08/05 11:13:42;;;;;;;8.90;4.20;;;;;;;33.40;31.46;97764.11;106091;1277;25253;-87
2022/08/05 11:16:24;;;;;;;7.40;3.30;;;;;;;33.53;30.96;97768.52;106032;1277;22573;-90
2022/08/05 11:19:23;;;;;;;5.90;3.60;;;;;;;33.56;30.04;97767.71;106145;1278;25363;-88
2022/08/05 11:22:48;;;;;;;4.20;2.90;;;;;;;33.53;30.64;97767.06;108378;1277;22557;-88
2022/08/05 11:25:37;;;;;;;6.50;3.00;;;;;;;33.70;29.73;97767.70;108683;1277;22584;-88
2022/08/05 11:28:32;;;;;;;8.50;3.70;;;;;;;33.57;29.62;97764.77;108684;1277;22542;-89
2022/08/05 11:31:04;;;;;;;6.50;2.90;;;;;;;33.63;29.67;97760.86;109122;1277;23870;-87
2022/08/05 11:33:51;;;;;;;5.30;3.30;;;;;;;33.80;29.70;97762.13;108905;1277;22610;-87
2022/08/05 11:36:43;;;;;;;6.30;2.90;;;;;;;33.98;28.66;97760.00;108666;1277;22674;-87
2022/08/05 11:39:17;;;;;;;6.00;3.00;;;;;;;33.98;27.85;97759.80;108816;1277;22530;-87
2022/08/05 11:41:51;;;;;;;5.30;2.90;;;;;;;33.99;28.79;97757.36;108232;1277;24089;-87
2022/08/05 11:44:38;;;;;;;3.30;2.60;;;;;;;34.16;28.46;97762.73;108656;1277;22620;-88
2022/08/05 11:47:22;;;;;;;5.60;2.60;;;;;;;34.15;28.08;97761.98;108793;1277;22540;-87
2022/08/05 11:50:10;;;;;;;6.40;2.80;;;;;;;34.34;28.52;97752.91;108169;1277;22696;-88
2022/08/05 11:52:41;;;;;;;4.90;2.90;;;;;;;34.55;28.26;97753.91;108513;1277;22564;-86
2022/08/05 11:55:13;;;;;;;5.20;2.80;;;;;;;34.75;28.23;97755.79;107964;1277;23389;-89
2022/08/05 11:57:45;;;;;;;12.60;3.20;;;;;;;34.90;27.86;97757.38;107962;1278;22561;-88
2022/08/05 12:00:33;;;;;;;8.60;2.90;;;;;;;34.96;27.08;97758.80;107434;1277;22793;-89
2022/08/05 12:03:22;;;;;;;4.60;2.80;;;;;;;34.87;27.06;97761.36;108264;1277;24117;-87
2022/08/05 12:06:03;;;;;;;4.60;2.80;;;;;;;34.94;27.26;97759.61;108082;1277;23962;-89
2022/08/05 12:08:47;;;;;;;7.80;2.40;;;;;;;34.97;27.33;97760.05;107616;1277;25920;-88
2022/08/05 12:11:20;;;;;;;4.20;2.60;;;;;;;35.12;27.49;97756.15;107013;1277;22620;-87
2022/08/05 12:14:07;;;;;;;3.40;2.40;;;;;;;35.33;27.04;97749.62;106732;1278;25362;-87
2022/08/05 12:16:40;;;;;;;4.40;2.30;;;;;;;35.37;26.26;97749.80;106673;1277;22593;-87
2022/08/05 12:19:13;;;;;;;8.10;2.60;;;;;;;35.37;26.49;97754.32;106425;1278;22843;-88
2022/08/05 12:22:05;;;;;;;11.20;3.30;;;;;;;35.45;26.35;97747.41;106384;1277;22559;-88
2022/08/05 12:24:40;;;;;;;8.40;2.90;;;;;;;35.60;25.21;97748.46;106079;1278;23231;-87
2022/08/05 12:27:26;;;;;;;3.50;2.30;;;;;;;35.27;25.18;97747.05;106212;1277;25383;-87
2022/08/05 12:30:06;;;;;;;7.30;2.70;;;;;;;35.06;25.30;97748.45;106373;1277;25668;-87
2022/08/05 12:32:45;;;;;;;5.20;2.60;;;;;;;35.13;25.61;97746.01;106246;1277;25361;-88